createdAt,value
2022-09-18T00:00:40.778Z,76.28
2022-09-18T00:03:32.167Z,76.74
2022-09-18T00:06:26.368Z,76.32
2022-09-18T00:09:17.640Z,76.29
2022-09-18T00:12:07.994Z,75.92
2022-09-18T00:14:58.910Z,75.76
2022-09-18T00:17:49.769Z,75.77
2022-09-18T00:20:40.634Z,74.61
2022-09-18T00:23:32.204Z,74.82
2022-09-18T00:26:22.487Z,75.12
2022-09-18T00:29:13.797Z,75.06
2022-09-18T00:32:04.843Z,74.92
2022-09-18T00:34:55.685Z,74.95
2022-09-18T00:37:46.003Z,74.63
2022-09-18T00:40:37.493Z,74.78
2022-09-18T00:43:30.182Z,75.13
2022-09-18T00:46:36.091Z,74.88
2022-09-18T00:49:28.394Z,75.15
2022-09-18T00:52:20.219Z,74.69
2022-09-18T00:55:12.525Z,74.07
2022-09-18T00:58:04.350Z,74.01
2022-09-18T01:00:56.650Z,72.96
2022-09-18T01:03:47.373Z,73.04
2022-09-18T01:06:49.219Z,72.49
2022-09-18T01:09:58.598Z,71.86
2022-09-18T01:13:01.000Z,71.57
2022-09-18T01:15:59.517Z,71.25
2022-09-18T01:19:18.239Z,70.41
2022-09-18T01:22:23.363Z,70.08
2022-09-18T01:25:19.390Z,69.58
2022-09-18T01:28:28.498Z,69.42
2022-09-18T01:31:41.387Z,69.30
2022-09-18T01:34:37.955Z,68.82
2022-09-18T01:38:00.535Z,69.12
2022-09-18T01:40:58.201Z,69.92
2022-09-18T01:43:51.234Z,69.29
2022-09-18T01:46:44.042Z,69.18
2022-09-18T01:49:41.998Z,69.59
2022-09-18T01:53:23.701Z,69.42
2022-09-18T01:56:19.737Z,69.34
2022-09-18T01:59:15.146Z,68.83
2022-09-18T02:02:21.127Z,68.93
2022-09-18T02:05:17.340Z,69.63
2022-09-18T02:08:20.786Z,69.01
2022-09-18T02:11:14.901Z,68.63
2022-09-18T02:14:44.246Z,68.66
2022-09-18T02:18:08.828Z,68.40
2022-09-18T02:21:04.581Z,68.51
2022-09-18T02:23:58.563Z,68.29
2022-09-18T02:26:51.211Z,68.08
2022-09-18T02:29:41.559Z,68.27
2022-09-18T02:32:32.105Z,68.22
2022-09-18T02:35:24.744Z,67.49
2022-09-18T02:38:44.208Z,67.80
2022-09-18T02:41:47.393Z,68.08
2022-09-18T02:45:16.303Z,68.24
2022-09-18T02:48:32.016Z,67.71
2022-09-18T02:51:34.289Z,67.64
2022-09-18T02:54:41.534Z,67.67
2022-09-18T02:57:33.506Z,67.48
2022-09-18T03:00:24.812Z,66.57
2022-09-18T03:03:17.644Z,66.92
2022-09-18T03:06:16.315Z,66.60
2022-09-18T03:09:06.485Z,66.47
2022-09-18T03:11:57.358Z,65.74
2022-09-18T03:14:52.611Z,65.58
2022-09-18T03:17:43.884Z,65.92
2022-09-18T03:20:35.957Z,65.13
2022-09-18T03:23:28.802Z,64.54
2022-09-18T03:26:30.500Z,63.90
2022-09-18T03:29:22.038Z,63.51
2022-09-18T03:32:16.756Z,63.54
2022-09-18T03:35:10.658Z,63.25
2022-09-18T03:38:02.899Z,63.04
2022-09-18T03:40:55.145Z,64.06
2022-09-18T03:44:28.572Z,64.07
2022-09-18T03:47:24.883Z,63.97
2022-09-18T03:50:16.238Z,63.53
2022-09-18T03:53:08.553Z,63.27
2022-09-18T03:56:06.864Z,62.76
2022-09-18T03:59:26.528Z,64.07
2022-09-18T04:02:20.147Z,63.79
2022-09-18T04:05:29.381Z,63.05
2022-09-18T04:08:39.828Z,63.41
2022-09-18T04:11:52.639Z,62.20
2022-09-18T04:14:48.621Z,62.02
2022-09-18T04:17:39.218Z,61.82
2022-09-18T04:20:31.787Z,61.81
2022-09-18T04:23:23.284Z,61.77
2022-09-18T04:26:14.984Z,61.46
2022-09-18T04:29:15.669Z,61.92
2022-09-18T04:32:07.322Z,62.22
2022-09-18T04:35:00.619Z,60.99
2022-09-18T04:37:51.107Z,61.19
2022-09-18T04:40:42.131Z,61.56
2022-09-18T04:43:35.112Z,61.26
2022-09-18T04:46:31.381Z,61.54
2022-09-18T04:49:24.201Z,62.27
2022-09-18T04:52:14.670Z,62.22
2022-09-18T04:55:06.934Z,61.70
2022-09-18T04:58:02.314Z,61.61
2022-09-18T05:00:59.715Z,60.87
2022-09-18T05:03:53.907Z,61.50
2022-09-18T05:06:56.244Z,61.23
2022-09-18T05:09:46.501Z,60.34
2022-09-18T05:12:39.966Z,58.90
2022-09-18T05:15:34.835Z,59.73
2022-09-18T05:18:33.501Z,59.59
2022-09-18T05:21:26.355Z,59.40
2022-09-18T05:24:18.865Z,59.42
2022-09-18T05:27:11.158Z,59.12
2022-09-18T05:30:03.020Z,59.36
2022-09-18T05:33:13.836Z,58.15
2022-09-18T05:36:14.983Z,58.44
2022-09-18T05:39:19.299Z,58.44
2022-09-18T05:42:10.741Z,59.31
2022-09-18T05:45:02.017Z,59.16
2022-09-18T05:47:59.611Z,59.49
2022-09-18T05:50:55.146Z,59.37
2022-09-18T05:53:53.213Z,60.01
2022-09-18T05:57:00.679Z,58.74
2022-09-18T05:59:54.408Z,58.48
2022-09-18T06:02:48.668Z,59.88
2022-09-18T06:05:42.315Z,60.53
2022-09-18T06:08:38.236Z,60.61
2022-09-18T06:11:29.973Z,60.93
2022-09-18T06:14:21.209Z,60.42
2022-09-18T06:17:14.340Z,60.47
2022-09-18T06:20:07.790Z,60.16
2022-09-18T06:23:03.732Z,60.38
2022-09-18T06:26:14.039Z,60.16
2022-09-18T06:29:06.987Z,59.83
2022-09-18T06:32:09.938Z,59.98
2022-09-18T06:35:01.797Z,59.60
2022-09-18T06:37:53.439Z,59.94
2022-09-18T06:40:58.175Z,59.30
2022-09-18T06:44:00.100Z,59.81
2022-09-18T06:46:56.091Z,59.58
2022-09-18T06:49:51.259Z,60.58
2022-09-18T06:52:41.797Z,61.15
2022-09-18T06:55:34.630Z,61.58
2022-09-18T06:58:27.371Z,62.12
2022-09-18T07:01:20.890Z,61.33
2022-09-18T07:04:16.536Z,61.07
2022-09-18T07:07:13.557Z,59.69
2022-09-18T07:10:08.993Z,60.27
2022-09-18T07:13:04.695Z,60.24
2022-09-18T07:16:04.192Z,60.83
2022-09-18T07:18:56.988Z,60.73
2022-09-18T07:21:49.006Z,60.88
2022-09-18T07:24:40.732Z,60.80
2022-09-18T07:27:32.580Z,60.98
2022-09-18T07:30:24.378Z,61.46
2022-09-18T07:33:17.159Z,61.43
2022-09-18T07:36:15.856Z,62.04
2022-09-18T07:39:10.437Z,61.93
2022-09-18T07:42:23.074Z,62.96
2022-09-18T07:45:16.662Z,63.19
2022-09-18T07:48:09.615Z,63.17
2022-09-18T07:51:06.292Z,63.18
2022-09-18T07:53:58.647Z,63.00
2022-09-18T07:57:11.890Z,63.12
2022-09-18T08:00:17.657Z,62.71
2022-09-18T08:03:16.778Z,63.03
2022-09-18T08:06:25.155Z,62.65
2022-09-18T08:09:40.305Z,62.38
2022-09-18T08:12:46.493Z,62.41
2022-09-18T08:15:55.823Z,62.52
2022-09-18T08:19:09.999Z,62.34
2022-09-18T08:22:07.839Z,62.06
2022-09-18T08:25:07.856Z,62.45
2022-09-18T08:28:04.493Z,63.29
2022-09-18T08:31:03.403Z,63.44
2022-09-18T08:33:54.956Z,62.91
2022-09-18T08:36:47.736Z,62.95
2022-09-18T08:39:47.805Z,63.96
2022-09-18T08:43:41.604Z,63.92
2022-09-18T08:46:40.917Z,63.99
2022-09-18T08:49:34.553Z,63.86
2022-09-18T08:52:33.127Z,63.52
2022-09-18T08:55:49.095Z,63.77
2022-09-18T08:59:08.140Z,63.84
2022-09-18T09:02:20.785Z,64.09
2022-09-18T09:05:34.726Z,64.60
2022-09-18T09:09:13.445Z,65.18
2022-09-18T09:12:33.231Z,64.71
2022-09-18T09:15:28.602Z,64.06
2022-09-18T09:18:27.259Z,64.37
2022-09-18T09:21:25.674Z,64.35
2022-09-18T09:24:22.776Z,64.33
2022-09-18T09:27:50.939Z,64.34
2022-09-18T09:31:10.936Z,64.10
2022-09-18T09:34:31.757Z,64.68
2022-09-18T09:37:45.271Z,64.91
2022-09-18T09:40:48.390Z,65.09
2022-09-18T09:43:58.880Z,65.53
2022-09-18T09:47:22.874Z,65.65
2022-09-18T09:50:20.305Z,65.75
2022-09-18T09:53:15.258Z,66.09
2022-09-18T09:56:20.093Z,66.29
2022-09-18T09:59:21.823Z,65.94
2022-09-18T10:03:16.787Z,66.29
2022-09-18T10:06:15.213Z,66.17
2022-09-18T10:09:31.229Z,66.13
2022-09-18T10:12:43.378Z,66.11
2022-09-18T10:15:43.766Z,66.19
2022-09-18T10:18:45.984Z,65.99
2022-09-18T10:21:38.898Z,66.30
2022-09-18T10:24:54.571Z,66.33
2022-09-18T10:27:46.063Z,65.72
2022-09-18T10:30:37.974Z,65.23
2022-09-18T10:33:35.349Z,65.61
2022-09-18T10:36:34.779Z,66.03
2022-09-18T10:39:41.771Z,66.03
2022-09-18T10:42:35.421Z,66.63
2022-09-18T10:45:44.950Z,66.78
2022-09-18T10:48:56.760Z,66.13
2022-09-18T10:51:47.405Z,65.66
2022-09-18T10:54:44.148Z,65.29
2022-09-18T10:58:08.330Z,65.34
2022-09-18T11:01:09.755Z,65.58
2022-09-18T11:04:06.735Z,65.48
2022-09-18T11:07:01.594Z,65.55
2022-09-18T11:09:55.613Z,65.62
2022-09-18T11:12:55.722Z,66.57
2022-09-18T11:16:00.660Z,67.04
2022-09-18T11:19:14.202Z,67.43
2022-09-18T11:22:09.222Z,67.85
2022-09-18T11:25:28.123Z,68.22
2022-09-18T11:28:35.793Z,68.23
2022-09-18T11:31:50.453Z,68.73
2022-09-18T11:34:57.490Z,68.64
2022-09-18T11:37:58.583Z,68.79
2022-09-18T11:40:54.750Z,68.56
2022-09-18T11:44:03.160Z,68.24
2022-09-18T11:47:22.387Z,68.24
2022-09-18T11:50:28.401Z,67.75
2022-09-18T11:53:29.996Z,67.81
2022-09-18T11:56:40.737Z,69.24
2022-09-18T11:59:59.268Z,71.40
2022-09-18T12:02:51.288Z,71.87
2022-09-18T12:06:01.752Z,72.73
2022-09-18T12:09:21.826Z,72.18
2022-09-18T12:12:35.970Z,72.07
2022-09-18T12:15:30.484Z,72.60
2022-09-18T12:18:27.592Z,72.22
2022-09-18T12:21:23.707Z,72.88
2022-09-18T12:24:19.444Z,72.00
2022-09-18T12:27:48.743Z,72.05
2022-09-18T12:30:48.824Z,72.03
2022-09-18T12:34:17.460Z,70.87
2022-09-18T12:37:14.922Z,70.66
2022-09-18T12:40:25.313Z,70.63
2022-09-18T12:43:39.012Z,71.53
2022-09-18T12:46:42.179Z,70.40
2022-09-18T12:49:54.599Z,69.04
2022-09-18T12:53:10.341Z,69.16
2022-09-18T12:56:31.755Z,69.27
2022-09-18T12:59:47.226Z,68.65
2022-09-18T13:02:41.407Z,68.27
2022-09-18T13:05:42.907Z,68.71
2022-09-18T13:09:02.857Z,68.63
2022-09-18T13:12:10.237Z,68.88
2022-09-18T13:15:21.480Z,68.73
2022-09-18T13:18:25.209Z,68.54
2022-09-18T13:21:33.478Z,68.61
2022-09-18T13:24:35.220Z,68.57
2022-09-18T13:27:31.896Z,68.36
2022-09-18T13:30:33.064Z,69.04
2022-09-18T13:33:31.157Z,69.30
2022-09-18T13:36:36.565Z,69.14
2022-09-18T13:39:55.359Z,68.84
2022-09-18T13:42:55.191Z,69.06
2022-09-18T13:45:47.070Z,69.51
2022-09-18T13:48:59.210Z,70.06
2022-09-18T13:51:49.701Z,70.15
2022-09-18T13:54:40.323Z,70.31
2022-09-18T13:57:34.731Z,70.50
2022-09-18T14:00:28.324Z,71.17
2022-09-18T14:03:24.003Z,71.10
2022-09-18T14:06:40.201Z,71.46
2022-09-18T14:10:04.267Z,71.38
2022-09-18T14:13:21.051Z,71.16
2022-09-18T14:16:25.471Z,71.27
2022-09-18T14:19:41.459Z,70.72
2022-09-18T14:22:36.183Z,70.85
2022-09-18T14:25:47.388Z,70.75
2022-09-18T14:28:40.565Z,70.71
2022-09-18T14:31:44.398Z,70.69
2022-09-18T14:34:40.696Z,70.70
2022-09-18T14:37:36.302Z,70.73
2022-09-18T14:40:33.510Z,70.77
2022-09-18T14:43:25.098Z,70.96
2022-09-18T14:46:31.140Z,71.58
2022-09-18T14:49:54.083Z,70.94
2022-09-18T14:52:50.745Z,70.75
2022-09-18T14:55:44.666Z,71.34
2022-09-18T14:58:46.843Z,70.93
2022-09-18T15:01:41.012Z,71.43
2022-09-18T15:04:33.509Z,71.60
2022-09-18T15:07:26.281Z,71.46
2022-09-18T15:10:18.905Z,72.94
2022-09-18T15:13:12.516Z,73.79
2022-09-18T15:16:07.067Z,74.31
2022-09-18T15:19:01.245Z,73.90
2022-09-18T15:21:51.615Z,74.16
2022-09-18T15:24:44.693Z,74.05
2022-09-18T15:27:38.189Z,74.45
2022-09-18T15:30:29.149Z,74.46
2022-09-18T15:33:31.557Z,74.18
2022-09-18T15:36:42.691Z,73.91
2022-09-18T15:39:41.733Z,74.70
2022-09-18T15:42:35.026Z,74.67
2022-09-18T15:45:25.216Z,75.10
2022-09-18T15:48:41.294Z,75.29
2022-09-18T15:51:46.301Z,75.90
2022-09-18T15:54:37.663Z,76.12
2022-09-18T15:57:27.957Z,76.07
2022-09-18T16:00:24.176Z,76.58
2022-09-18T16:03:21.230Z,76.28
2022-09-18T16:06:24.553Z,75.74
2022-09-18T16:09:28.161Z,75.75
2022-09-18T16:12:29.669Z,76.18
2022-09-18T16:15:23.309Z,75.82
2022-09-18T16:18:32.233Z,76.49
2022-09-18T16:21:22.388Z,76.28
2022-09-18T16:24:31.228Z,76.16
2022-09-18T16:27:23.700Z,76.35
2022-09-18T16:30:20.621Z,76.40
2022-09-18T16:33:23.331Z,76.39
2022-09-18T16:36:28.329Z,76.19
2022-09-18T16:39:24.731Z,76.21
2022-09-18T16:42:19.904Z,76.62
2022-09-18T16:45:10.641Z,76.16
2022-09-18T16:48:01.257Z,76.48
2022-09-18T16:50:52.966Z,76.41
2022-09-18T16:53:43.323Z,75.33
2022-09-18T16:56:59.245Z,75.07
2022-09-18T16:59:50.077Z,75.69
2022-09-18T17:02:40.310Z,75.24
2022-09-18T17:05:31.344Z,75.50
2022-09-18T17:08:21.957Z,75.95
2022-09-18T17:11:12.554Z,76.58
2022-09-18T17:14:04.219Z,76.90
2022-09-18T17:16:55.228Z,77.09
2022-09-18T17:19:45.505Z,77.67
2022-09-18T17:22:35.899Z,78.17
2022-09-18T17:25:26.123Z,78.07
2022-09-18T17:28:19.202Z,78.68
2022-09-18T17:31:16.166Z,78.19
2022-09-18T17:34:07.247Z,77.97
2022-09-18T17:36:57.413Z,78.89
2022-09-18T17:39:50.320Z,78.70
2022-09-18T17:42:40.899Z,78.47
2022-09-18T17:45:31.122Z,77.78
2022-09-18T17:48:21.435Z,77.99
2022-09-18T17:51:15.394Z,77.86
2022-09-18T17:54:10.056Z,78.16
2022-09-18T17:57:02.900Z,77.77
2022-09-18T17:59:54.624Z,77.77
2022-09-18T18:02:49.067Z,78.08
2022-09-18T18:05:39.934Z,77.77
2022-09-18T18:08:30.912Z,77.49
2022-09-18T18:11:24.294Z,77.36
2022-09-18T18:14:17.175Z,77.44
2022-09-18T18:17:08.511Z,77.40
2022-09-18T18:19:58.593Z,77.63
2022-09-18T18:22:48.998Z,77.69
2022-09-18T18:25:40.361Z,77.90
2022-09-18T18:28:37.726Z,78.02
2022-09-18T18:31:30.729Z,78.01
2022-09-18T18:34:23.618Z,78.18
2022-09-18T18:37:15.129Z,77.83
2022-09-18T18:40:07.576Z,77.88
2022-09-18T18:42:57.749Z,77.50
2022-09-18T18:45:58.549Z,77.78
2022-09-18T18:48:49.105Z,77.60
2022-09-18T18:51:47.605Z,77.34
2022-09-18T18:54:38.277Z,77.73
2022-09-18T18:57:28.373Z,77.89
2022-09-18T19:00:18.924Z,77.61
2022-09-18T19:03:09.663Z,77.79
2022-09-18T19:06:00.003Z,77.57
2022-09-18T19:08:51.882Z,77.42
2022-09-18T19:11:49.648Z,77.77
2022-09-18T19:14:39.842Z,77.50
2022-09-18T19:17:30.662Z,77.53
2022-09-18T19:20:21.433Z,77.87
2022-09-18T19:23:14.624Z,78.27
2022-09-18T19:26:05.429Z,78.48
2022-09-18T19:28:58.438Z,79.05
2022-09-18T19:31:49.671Z,79.32
2022-09-18T19:34:43.389Z,79.14
2022-09-18T19:37:33.527Z,80.25
2022-09-18T19:40:24.443Z,80.04
2022-09-18T19:43:21.172Z,80.15
2022-09-18T19:46:14.086Z,80.42
2022-09-18T19:49:04.568Z,80.14
2022-09-18T19:51:54.660Z,80.20
2022-09-18T19:54:47.637Z,80.72
2022-09-18T19:57:37.420Z,80.31
2022-09-18T20:00:28.043Z,80.91
2022-09-18T20:03:18.400Z,81.23
2022-09-18T20:06:09.177Z,81.07
2022-09-18T20:08:59.213Z,81.27
2022-09-18T20:11:49.031Z,81.19
2022-09-18T20:14:39.245Z,81.29
2022-09-18T20:17:32.695Z,80.78
2022-09-18T20:20:22.716Z,80.99
2022-09-18T20:23:13.275Z,80.78
2022-09-18T20:26:03.203Z,81.16
2022-09-18T20:28:53.910Z,80.59
2022-09-18T20:31:44.519Z,80.56
2022-09-18T20:34:35.128Z,80.63
2022-09-18T20:37:34.434Z,81.19
2022-09-18T20:40:24.988Z,80.59
2022-09-18T20:43:16.196Z,80.26
2022-09-18T20:46:08.678Z,80.95
2022-09-18T20:48:59.590Z,81.40
2022-09-18T20:51:50.482Z,81.56
2022-09-18T20:54:43.030Z,81.81
2022-09-18T20:57:33.904Z,81.26
2022-09-18T21:00:24.138Z,81.66
2022-09-18T21:03:15.647Z,81.45
2022-09-18T21:06:23.328Z,81.62
2022-09-18T21:09:14.302Z,81.60
2022-09-18T21:12:04.812Z,82.01
2022-09-18T21:14:55.340Z,81.49
2022-09-18T21:17:48.305Z,81.19
2022-09-18T21:20:39.649Z,80.29
2022-09-18T21:23:50.289Z,79.19
2022-09-18T21:26:50.281Z,78.86
2022-09-18T21:29:42.180Z,79.34
2022-09-18T21:32:39.860Z,79.02
2022-09-18T21:35:30.583Z,79.04
2022-09-18T21:38:21.171Z,79.58
2022-09-18T21:41:12.049Z,80.06
2022-09-18T21:44:02.463Z,80.10
2022-09-18T21:46:53.498Z,80.53
2022-09-18T21:49:43.653Z,80.40
2022-09-18T21:52:33.604Z,80.72
2022-09-18T21:55:23.615Z,81.24
2022-09-18T21:58:13.491Z,80.74
2022-09-18T22:01:20.450Z,80.95
2022-09-18T22:04:11.852Z,81.48
2022-09-18T22:07:03.234Z,80.94
2022-09-18T22:09:53.682Z,80.21
2022-09-18T22:12:44.136Z,80.54
2022-09-18T22:15:34.159Z,80.20
2022-09-18T22:18:24.641Z,80.51
2022-09-18T22:21:22.159Z,80.89
2022-09-18T22:24:15.605Z,81.31
2022-09-18T22:27:09.716Z,81.64
2022-09-18T22:29:59.655Z,81.48
2022-09-18T22:32:50.004Z,81.14
2022-09-18T22:35:40.001Z,81.95
2022-09-18T22:38:30.149Z,81.21
2022-09-18T22:41:20.891Z,81.35
2022-09-18T22:44:14.344Z,81.68
2022-09-18T22:47:05.463Z,81.56
2022-09-18T22:49:55.820Z,81.76
2022-09-18T22:52:46.060Z,81.84
2022-09-18T22:55:36.955Z,82.47
2022-09-18T22:58:27.549Z,82.30
2022-09-18T23:01:29.690Z,81.78
2022-09-18T23:04:24.963Z,82.29
2022-09-18T23:07:15.173Z,81.93
2022-09-18T23:10:04.722Z,81.54
2022-09-18T23:12:55.136Z,81.39
2022-09-18T23:15:45.243Z,81.83
2022-09-18T23:18:36.397Z,82.19
2022-09-18T23:21:33.099Z,82.68
2022-09-18T23:24:24.311Z,81.50
2022-09-18T23:27:15.826Z,81.07
2022-09-18T23:30:06.610Z,81.41
2022-09-18T23:32:57.098Z,81.87
2022-09-18T23:35:48.605Z,82.11
2022-09-18T23:38:40.078Z,82.79
2022-09-18T23:41:39.373Z,82.21
2022-09-18T23:44:32.786Z,82.57
2022-09-18T23:47:22.959Z,82.38
2022-09-18T23:50:13.149Z,82.63
2022-09-18T23:53:03.999Z,83.05
2022-09-18T23:55:54.651Z,83.66
2022-09-18T23:58:50.886Z,83.28
